Time;durP1;ratioP1;P1;durP2;ratioP2;P2;SDS_P1;SDS_P2;PMS_P1;PMS_P2;Temp;Humidity;BMP_temperature;BMP_pressure;BME280_temperature;BME280_humidity;BME280_pressure;Samples;Min_cycle;Max_cycle;Signal;HPM_P1;HPM_P2
2022/08/15 00:00:35;;;;;;;9.00;2.50;;;;;;;21.79;100.00;97120.47;5105720;28;20055;-92
2022/08/15 00:03:03;;;;;;;9.15;2.72;;;;;;;21.72;100.00;97114.00;5102389;28;20185;-92
2022/08/15 00:05:33;;;;;;;8.35;2.78;;;;;;;21.77;100.00;97112.66;5084465;28;20028;-92
2022/08/15 00:07:59;;;;;;;7.47;2.58;;;;;;;21.90;100.00;97111.66;5074309;28;20032;-93
2022/08/15 00:10:26;;;;;;;8.50;2.70;;;;;;;22.05;100.00;97105.06;5066512;28;20310;-91
2022/08/15 00:12:51;;;;;;;8.32;2.80;;;;;;;21.87;100.00;97117.22;5066261;28;20100;-91
2022/08/15 00:15:19;;;;;;;10.10;3.33;;;;;;;21.82;100.00;97107.81;5071651;28;20082;-93
2022/08/15 00:17:47;;;;;;;9.40;3.08;;;;;;;22.05;100.00;97104.25;5089855;28;20031;-93
2022/08/15 00:20:13;;;;;;;7.85;3.17;;;;;;;21.81;100.00;97113.25;5096090;28;20037;-93
2022/08/15 00:22:48;;;;;;;7.65;3.00;;;;;;;21.94;100.00;97108.59;5084804;28;20088;-93
2022/08/15 00:25:15;;;;;;;6.88;2.83;;;;;;;21.85;100.00;97105.88;5085224;28;20039;-93
2022/08/15 00:27:40;;;;;;;7.38;2.88;;;;;;;22.10;100.00;97102.91;5084360;28;20036;-91
2022/08/15 00:30:09;;;;;;;8.57;3.10;;;;;;;21.75;100.00;97108.41;5086154;28;20024;-93
2022/08/15 00:32:36;;;;;;;9.02;3.58;;;;;;;21.94;100.00;97108.59;5069097;28;20047;-92
2022/08/15 00:35:35;;;;;;;8.77;3.10;;;;;;;22.07;100.00;97107.59;5082750;28;20028;-93
2022/08/15 00:37:55;;;;;;;8.65;3.10;;;;;;;21.77;100.00;97106.50;5084926;28;20048;-93
2022/08/15 00:40:22;;;;;;;7.28;3.13;;;;;;;21.88;100.00;97097.66;5065097;28;20054;-92
2022/08/15 00:42:47;;;;;;;11.20;3.35;;;;;;;21.90;100.00;97093.91;5066943;28;20036;-93
2022/08/15 00:45:14;;;;;;;8.05;3.35;;;;;;;22.02;100.00;97094.72;5065305;28;20510;-94
2022/08/15 00:47:41;;;;;;;8.43;3.00;;;;;;;22.03;100.00;97096.38;5067469;28;20051;-94
2022/08/15 00:50:13;;;;;;;10.75;3.03;;;;;;;21.98;100.00;97098.59;5082353;28;20127;-94
2022/08/15 00:52:39;;;;;;;9.38;2.92;;;;;;;21.72;100.00;97088.28;5060975;28;20039;-93
2022/08/15 00:55:16;;;;;;;7.57;2.97;;;;;;;21.76;100.00;97081.75;5064096;28;20047;-93
2022/08/15 00:57:45;;;;;;;7.88;3.20;;;;;;;21.63;100.00;97087.22;5079517;28;20028;-92
2022/08/15 01:00:21;;;;;;;9.32;3.03;;;;;;;21.56;100.00;97088.69;5085465;28;20387;-91
2022/08/15 01:02:48;;;;;;;7.68;2.95;;;;;;;21.42;100.00;97081.81;5084713;28;20028;-91
2022/08/15 01:05:15;;;;;;;8.10;3.08;;;;;;;21.67;100.00;97081.66;5069749;28;20123;-92
2022/08/15 01:07:41;;;;;;;9.02;3.20;;;;;;;21.67;100.00;97077.22;5067022;28;20028;-92
2022/08/15 01:10:08;;;;;;;7.07;3.03;;;;;;;21.65;100.00;97073.84;5063714;28;20108;-92
2022/08/15 01:12:37;;;;;;;8.07;2.88;;;;;;;21.73;100.00;97068.75;5055588;28;20066;-93
2022/08/15 01:15:10;;;;;;;6.50;2.75;;;;;;;21.72;100.00;97069.72;5085793;28;20040;-93
2022/08/15 01:17:36;;;;;;;7.90;2.90;;;;;;;21.70;100.00;97071.66;5068676;28;20032;-94
2022/08/15 01:20:17;;;;;;;8.68;3.05;;;;;;;21.68;100.00;97067.44;5059663;28;20074;-92
2022/08/15 01:23:01;;;;;;;6.97;2.80;;;;;;;21.68;100.00;97065.63;5059925;28;20129;-93
2022/08/15 01:25:35;;;;;;;7.32;3.00;;;;;;;21.64;100.00;97058.88;5064344;28;20746;-92
2022/08/15 01:28:13;;;;;;;6.78;2.80;;;;;;;21.69;100.00;97066.50;5075394;28;20057;-93
2022/08/15 01:30:49;;;;;;;6.88;2.85;;;;;;;21.66;100.00;97062.28;5082980;28;20066;-93
2022/08/15 01:33:15;;;;;;;8.63;3.10;;;;;;;21.80;100.00;97063.78;5084238;28;20039;-93
2022/08/15 01:35:42;;;;;;;9.48;3.33;;;;;;;21.79;100.00;97059.44;5088857;28;20040;-92
2022/08/15 01:38:30;;;;;;;6.93;2.83;;;;;;;21.77;100.00;97062.22;5105101;28;20023;-94
2022/08/15 01:40:58;;;;;;;8.70;2.90;;;;;;;21.83;100.00;97063.53;5070376;28;20031;-91
2022/08/15 01:43:28;;;;;;;7.07;3.00;;;;;;;22.02;100.00;97057.56;5073377;28;20035;-92
2022/08/15 01:46:00;;;;;;;8.80;3.22;;;;;;;22.07;100.00;97052.69;5071792;28;20024;-92
2022/08/15 01:48:33;;;;;;;9.95;3.22;;;;;;;21.79;100.00;97051.47;5096265;28;20043;-93
2022/08/15 01:51:06;;;;;;;8.40;3.30;;;;;;;21.47;100.00;97054.91;5074011;28;20029;-92
2022/08/15 01:53:39;;;;;;;7.55;3.17;;;;;;;21.38;100.00;97051.22;5069218;28;20484;-92
2022/08/15 01:56:19;;;;;;;7.00;3.17;;;;;;;21.56;100.00;97048.06;5060517;28;20693;-92
2022/08/15 01:58:45;;;;;;;7.80;3.05;;;;;;;21.72;100.00;97051.13;5086019;28;20040;-91
2022/08/15 02:01:18;;;;;;;7.93;3.13;;;;;;;21.43;100.00;97046.38;5063188;28;20035;-91
2022/08/15 02:03:46;;;;;;;7.65;3.10;;;;;;;21.63;100.00;97041.31;5081847;28;20030;-92
2022/08/15 02:06:16;;;;;;;7.40;2.85;;;;;;;21.63;100.00;97041.31;5088922;28;20036;-92
2022/08/15 02:08:43;;;;;;;8.45;3.28;;;;;;;21.66;100.00;97041.03;5068575;28;20028;-91
2022/08/15 02:11:16;;;;;;;6.95;3.15;;;;;;;21.50;100.00;97046.72;5069764;28;20059;-92
2022/08/15 02:13:41;;;;;;;;;;;;;;;21.67;100.00;97037.44;5067354;28;20475;-91
2022/08/15 02:16:07;;;;;;;8.27;3.17;;;;;;;21.47;100.00;97029.25;5080996;28;19927;-92
2022/08/15 02:18:34;;;;;;;8.25;3.00;;;;;;;21.51;100.00;97031.66;5084944;28;20024;-92
2022/08/15 02:20:59;;;;;;;9.43;2.70;;;;;;;21.37;100.00;97030.97;5064736;28;20039;-92
2022/08/15 02:23:26;;;;;;;8.20;3.13;;;;;;;21.22;100.00;97034.84;5085792;28;20742;-92
2022/08/15 02:25:54;;;;;;;6.97;3.17;;;;;;;21.37;100.00;97030.97;5071552;28;20036;-92
2022/08/15 02:28:19;;;;;;;7.20;2.95;;;;;;;21.24;100.00;97025.81;5065603;28;20028;-92
2022/08/15 02:30:46;;;;;;;11.55;3.25;;;;;;;21.34;100.00;97017.94;5057308;28;20620;-92
2022/08/15 02:33:12;;;;;;;7.63;2.72;;;;;;;21.41;100.00;97019.13;5050421;28;20594;-92
2022/08/15 02:35:39;;;;;;;9.43;3.58;;;;;;;21.14;100.00;97015.09;5084758;28;20035;-91
2022/08/15 02:38:05;;;;;;;9.70;3.22;;;;;;;21.14;100.00;97015.09;5080486;28;20039;-91
2022/08/15 02:40:33;;;;;;;8.25;3.13;;;;;;;21.10;100.00;97013.66;5080953;28;20023;-91
2022/08/15 02:43:09;;;;;;;9.15;3.40;;;;;;;21.18;100.00;97010.38;5065932;28;20027;-92
2022/08/15 02:45:39;;;;;;;7.90;3.08;;;;;;;20.91;100.00;97008.97;5085560;28;20055;-93
2022/08/15 02:48:10;;;;;;;7.40;3.22;;;;;;;20.83;100.00;97005.25;5052954;28;20029;-91
2022/08/15 02:50:38;;;;;;;8.63;3.33;;;;;;;20.87;100.00;97004.88;5064911;28;20035;-94
2022/08/15 02:53:17;;;;;;;8.80;3.00;;;;;;;20.80;100.00;97004.50;5085471;28;20085;-93
2022/08/15 02:55:47;;;;;;;6.85;3.13;;;;;;;20.65;100.00;97005.69;5062857;28;20089;-92
2022/08/15 02:58:15;;;;;;;7.95;3.40;;;;;;;20.53;100.00;96998.69;5058753;28;20031;-91
2022/08/15 03:00:45;;;;;;;8.55;3.20;;;;;;;20.44;100.00;96998.44;5075570;28;20722;-92
2022/08/15 03:03:14;;;;;;;7.57;3.30;;;;;;;20.80;100.00;97004.50;5085184;28;20035;-92
2022/08/15 03:05:44;;;;;;;8.52;3.03;;;;;;;20.66;100.00;96999.44;5081789;28;20078;-92
2022/08/15 03:08:10;;;;;;;6.55;2.80;;;;;;;20.42;100.00;96996.91;5059399;28;20020;-91
2022/08/15 03:10:37;;;;;;;7.85;3.40;;;;;;;20.54;100.00;96997.75;5086474;28;20040;-92
2022/08/15 03:13:15;;;;;;;8.00;3.30;;;;;;;20.33;100.00;96995.78;5082685;28;20113;-92
2022/08/15 03:15:53;;;;;;;7.90;3.30;;;;;;;20.20;100.00;96990.59;5084593;28;20032;-91
2022/08/15 03:18:21;;;;;;;8.30;3.25;;;;;;;20.20;100.00;96987.13;5082391;28;20031;-93
2022/08/15 03:20:51;;;;;;;7.88;3.47;;;;;;;19.87;100.00;96984.25;5065592;28;20032;-93
2022/08/15 03:23:21;;;;;;;8.68;3.30;;;;;;;20.08;100.00;96989.75;5081946;28;20024;-92
2022/08/15 03:25:50;;;;;;;8.82;3.65;;;;;;;20.13;100.00;96984.94;5065818;28;20063;-92
2022/08/15 03:28:22;;;;;;;8.55;3.50;;;;;;;19.97;100.00;96978.28;5059835;28;20086;-92
2022/08/15 03:30:47;;;;;;;9.03;3.67;;;;;;;20.08;100.00;96979.16;5085235;28;20139;-91
2022/08/15 03:33:14;;;;;;;8.82;3.20;;;;;;;19.68;100.00;96976.84;5077180;28;20135;-93
2022/08/15 03:35:47;;;;;;;8.10;3.80;;;;;;;19.70;100.00;96972.28;5065029;28;20475;-92
2022/08/15 03:38:13;;;;;;;10.73;3.85;;;;;;;19.53;100.00;96975.34;5068719;28;20057;-92
2022/08/15 03:40:41;;;;;;;10.35;3.90;;;;;;;19.62;100.00;96972.00;5096902;28;20071;-91
2022/08/15 03:43:13;;;;;;;7.95;3.90;;;;;;;19.87;100.00;96975.50;5109029;28;20035;-92
2022/08/15 03:45:47;;;;;;;8.65;3.75;;;;;;;20.11;100.00;96962.19;5067285;28;20028;-93
2022/08/15 03:48:12;;;;;;;8.52;3.72;;;;;;;20.18;100.00;96968.72;5068175;28;20488;-92
2022/08/15 03:50:38;;;;;;;9.85;3.95;;;;;;;20.34;100.00;96962.25;5105124;28;20076;-92
2022/08/15 03:53:07;;;;;;;8.00;3.83;;;;;;;20.12;100.00;96964.75;5109958;28;20024;-91
2022/08/15 03:55:36;;;;;;;8.85;4.03;;;;;;;20.29;100.00;96963.44;5063950;28;20513;-93
2022/08/15 03:58:04;;;;;;;10.55;3.67;;;;;;;20.29;100.00;96954.63;5067841;28;20032;-91
2022/08/15 04:00:33;;;;;;;9.05;4.10;;;;;;;20.34;100.00;96946.34;5059157;28;20036;-92
2022/08/15 04:03:23;;;;;;;8.90;3.70;;;;;;;20.29;100.00;96939.63;5066482;28;20028;-93
2022/08/15 04:05:57;;;;;;;8.13;3.67;;;;;;;20.22;100.00;96934.91;5059753;28;20478;-93
2022/08/15 04:08:25;;;;;;;9.77;4.13;;;;;;;20.23;100.00;96926.84;5065343;28;20024;-95
2022/08/15 04:10:52;;;;;;;8.75;4.03;;;;;;;20.34;100.00;96936.59;5065685;28;20029;-93
2022/08/15 04:13:24;;;;;;;11.30;4.65;;;;;;;20.21;100.00;96938.50;5065375;28;20039;-91
2022/08/15 04:15:55;;;;;;;8.30;3.63;;;;;;;20.13;100.00;96928.53;5063807;28;20040;-93
2022/08/15 04:18:22;;;;;;;9.27;4.15;;;;;;;19.80;100.00;96934.59;5063634;28;20024;-94
2022/08/15 04:20:48;;;;;;;8.27;3.55;;;;;;;19.72;100.00;96933.34;5063927;28;20048;-92
2022/08/15 04:23:13;;;;;;;9.93;3.83;;;;;;;19.54;100.00;96932.94;5067517;28;20039;-93
2022/08/15 04:25:41;;;;;;;8.18;3.80;;;;;;;19.31;100.00;96928.53;5058731;28;20035;-93
2022/08/15 04:28:08;;;;;;;8.15;3.70;;;;;;;19.40;100.00;96923.38;5065897;28;20024;-93
2022/08/15 04:30:41;;;;;;;8.13;3.70;;;;;;;19.82;100.00;96917.66;5058289;28;20147;-94
2022/08/15 04:33:12;;;;;;;9.02;3.72;;;;;;;19.60;100.00;96926.34;5065719;28;20032;-92
2022/08/15 04:35:40;;;;;;;9.65;3.90;;;;;;;19.22;100.00;96924.72;5065342;28;20040;-92
2022/08/15 04:38:07;;;;;;;8.38;4.00;;;;;;;19.52;100.00;96912.84;5067076;28;20122;-92
2022/08/15 04:40:33;;;;;;;9.73;3.88;;;;;;;19.45;100.00;96912.47;5066699;28;20060;-92
2022/08/15 04:42:59;;;;;;;9.63;4.32;;;;;;;19.73;100.00;96913.03;5064498;28;20032;-92
2022/08/15 04:45:30;;;;;;;9.25;4.05;;;;;;;19.43;100.00;96917.03;5067523;28;20698;-91
2022/08/15 04:47:56;;;;;;;9.73;4.25;;;;;;;19.46;100.00;96919.44;5063389;28;20516;-92
2022/08/15 04:50:22;;;;;;;8.85;4.00;;;;;;;19.31;100.00;96923.22;5059049;28;20036;-92
2022/08/15 04:52:54;;;;;;;10.27;3.85;;;;;;;19.21;100.00;96915.13;5083348;28;20055;-92
2022/08/15 04:55:22;;;;;;;9.07;4.17;;;;;;;19.26;100.00;96924.41;5083334;28;20080;-93
2022/08/15 04:57:48;;;;;;;8.68;3.97;;;;;;;19.42;100.00;96910.88;5069035;28;20046;-92
2022/08/15 05:00:18;;;;;;;9.30;4.10;;;;;;;19.38;100.00;96904.16;5085326;28;20035;-92
2022/08/15 05:03:08;;;;;;;9.45;4.15;;;;;;;18.82;100.00;96906.50;5066695;28;20122;-93
2022/08/15 05:05:36;;;;;;;8.50;3.97;;;;;;;18.55;100.00;96908.38;5068055;28;20447;-94
2022/08/15 05:08:02;;;;;;;12.15;4.30;;;;;;;18.81;100.00;96913.56;5085502;28;20044;-93
2022/08/15 05:10:28;;;;;;;7.90;3.80;;;;;;;18.73;100.00;96906.22;5081264;28;20082;-94
2022/08/15 05:12:54;;;;;;;9.25;3.90;;;;;;;18.81;100.00;96913.56;5086865;28;20063;-94
2022/08/15 05:15:21;;;;;;;9.55;4.00;;;;;;;18.64;100.00;96912.13;5080728;28;20060;-94
2022/08/15 05:17:47;;;;;;;11.30;4.40;;;;;;;18.65;100.00;96911.19;5088877;28;20125;-93
2022/08/15 05:20:14;;;;;;;10.43;4.20;;;;;;;18.90;100.00;96915.59;5065628;28;20843;-92
2022/08/15 05:22:58;;;;;;;12.38;5.10;;;;;;;18.64;100.00;96920.06;5084578;28;20047;-93
2022/08/15 05:25:23;;;;;;;13.77;7.13;;;;;;;18.56;100.00;96914.47;5086092;28;20024;-92
2022/08/15 05:27:49;;;;;;;19.55;9.10;;;;;;;19.06;100.00;96911.81;5079111;28;20493;-93
2022/08/15 05:30:15;;;;;;;21.85;11.27;;;;;;;19.21;100.00;96915.13;5067544;28;20081;-92
2022/08/15 05:32:41;;;;;;;28.45;13.23;;;;;;;19.56;100.00;96919.59;5083021;28;20038;-92
2022/08/15 05:35:07;;;;;;;27.63;14.30;;;;;;;19.73;100.00;96919.16;5087508;28;20210;-92
2022/08/15 05:37:33;;;;;;;24.75;12.40;;;;;;;19.67;100.00;96926.72;5083565;28;20138;-92
2022/08/15 05:39:59;;;;;;;31.40;15.02;;;;;;;19.58;100.00;96917.66;5085703;28;20057;-93
2022/08/15 05:46:11;;;;;;;33.40;16.25;;;;;;;19.65;100.00;96924.16;5103534;28;20058;-93
2022/08/15 05:48:38;;;;;;;31.38;15.95;;;;;;;19.80;100.00;96921.38;5092680;28;20496;-92
2022/08/15 05:51:30;;;;;;;29.42;15.63;;;;;;;19.97;100.00;96923.56;5084293;28;20042;-93
2022/08/15 05:54:24;;;;;;;25.93;13.77;;;;;;;20.12;100.00;96921.53;5066221;28;20103;-90
2022/08/15 05:57:00;;;;;;;26.05;14.40;;;;;;;20.07;100.00;96927.19;5072098;28;20273;-91
2022/08/15 05:59:39;;;;;;;30.80;14.02;;;;;;;19.79;100.00;96923.13;5073377;28;20399;-92
2022/08/15 06:02:13;;;;;;;24.23;13.82;;;;;;;19.71;100.00;96926.38;5079850;28;20035;-91
2022/08/15 06:04:51;;;;;;;27.85;14.20;;;;;;;19.68;100.00;96939.84;5086239;28;20065;-92
2022/08/15 06:07:17;;;;;;;32.83;15.82;;;;;;;19.93;100.00;96945.91;5079137;28;20031;-92
2022/08/15 06:09:48;;;;;;;29.63;15.63;;;;;;;19.92;100.00;96929.22;5083361;28;20059;-91
2022/08/15 06:12:39;;;;;;;32.58;17.98;;;;;;;20.20;100.00;96927.09;5080335;28;20032;-92
2022/08/15 06:15:31;;;;;;;35.30;19.42;;;;;;;20.19;100.00;96929.84;5053054;28;20032;-92
2022/08/15 06:18:01;;;;;;;36.53;19.10;;;;;;;20.29;100.00;96928.16;5084923;28;20529;-93
2022/08/15 06:21:01;;;;;;;39.25;20.35;;;;;;;20.84;100.00;96930.94;5063650;28;20048;-92
2022/08/15 06:23:29;;;;;;;42.05;22.02;;;;;;;20.92;100.00;96933.81;5073887;28;20032;-91
2022/08/15 06:26:14;;;;;;;47.60;22.60;;;;;;;20.99;100.00;96928.88;5080465;28;20024;-91
2022/08/15 06:28:46;;;;;;;38.22;21.27;;;;;;;21.24;100.00;96925.06;5078719;28;20029;-93
2022/08/15 06:31:33;;;;;;;37.47;21.02;;;;;;;21.26;100.00;96927.59;5075872;28;20056;-94
2022/08/15 06:34:16;;;;;;;39.95;19.17;;;;;;;21.13;100.00;96922.44;5069290;28;20515;-92
2022/08/15 06:37:06;;;;;;;44.83;19.85;;;;;;;21.07;100.00;96925.59;5086051;28;20059;-93
2022/08/15 06:39:43;;;;;;;38.25;19.83;;;;;;;20.92;100.00;96930.34;5066159;28;20038;-94
2022/08/15 06:42:54;;;;;;;39.42;19.00;;;;;;;20.69;100.00;96937.47;5055486;28;20039;-94
2022/08/15 06:45:31;;;;;;;38.25;18.25;;;;;;;20.85;100.00;96935.28;5070794;28;20066;-92
2022/08/15 06:48:05;;;;;;;37.25;19.45;;;;;;;21.06;100.00;96930.06;5079691;28;20028;-92
2022/08/15 06:50:37;;;;;;;38.50;18.50;;;;;;;21.17;100.00;96930.97;5070742;28;20515;-92
2022/08/15 06:53:18;;;;;;;35.85;17.60;;;;;;;20.98;100.00;96929.84;5060556;28;20036;-92
2022/08/15 06:56:00;;;;;;;40.55;17.98;;;;;;;20.97;100.00;96928.13;5067223;28;20063;-92
2022/08/15 06:58:33;;;;;;;36.67;16.60;;;;;;;20.83;100.00;96923.94;5065951;28;20101;-91
2022/08/15 07:01:09;;;;;;;38.80;18.13;;;;;;;20.88;100.00;96919.13;5069018;28;20020;-92
2022/08/15 07:04:00;;;;;;;32.45;17.20;;;;;;;20.70;100.00;96924.09;5059708;28;20036;-92
2022/08/15 07:06:43;;;;;;;33.00;17.90;;;;;;;20.65;100.00;96928.88;5082453;28;20028;-93
2022/08/15 07:09:21;;;;;;;37.67;16.52;;;;;;;20.77;100.00;96937.69;5079676;28;20039;-88
2022/08/15 07:11:58;;;;;;;34.58;16.83;;;;;;;20.64;100.00;96940.47;5074878;28;20245;-88
2022/08/15 07:14:47;;;;;;;35.40;16.45;;;;;;;20.59;100.00;96947.91;5079860;28;20030;-90
2022/08/15 07:17:20;;;;;;;34.25;18.02;;;;;;;20.58;100.00;96936.47;5085314;28;20055;-89
2022/08/15 07:19:45;;;;;;;37.45;17.50;;;;;;;20.43;100.00;96937.69;5078228;28;20114;-86
2022/08/15 07:22:11;;;;;;;31.80;18.33;;;;;;;20.44;100.00;96934.06;5058585;28;20035;-88
2022/08/15 07:24:48;;;;;;;39.03;17.85;;;;;;;20.37;100.00;96933.69;5081249;28;20024;-87
2022/08/15 07:27:17;;;;;;;29.50;16.67;;;;;;;20.39;100.00;96930.94;5082915;28;20088;-88
2022/08/15 07:29:47;;;;;;;37.75;16.55;;;;;;;20.16;100.00;96944.16;5086205;28;20024;-88
2022/08/15 07:32:25;;;;;;;23.27;13.27;;;;;;;19.90;100.00;96949.66;5063594;28;20028;-90
2022/08/15 07:34:55;;;;;;;27.45;13.15;;;;;;;19.84;100.00;96944.00;5059933;28;20043;-88
2022/08/15 07:37:22;;;;;;;23.25;12.73;;;;;;;19.86;100.00;96942.06;5086890;28;20039;-88
2022/08/15 07:40:01;;;;;;;25.88;12.90;;;;;;;19.78;100.00;96932.88;5059314;28;20032;-89
2022/08/15 07:42:27;;;;;;;22.77;11.77;;;;;;;19.98;100.00;96925.25;5066215;28;20032;-88
2022/08/15 07:44:57;;;;;;;22.40;12.57;;;;;;;19.86;100.00;96932.34;5061902;28;20027;-88
2022/08/15 07:47:27;;;;;;;23.58;12.73;;;;;;;19.80;100.00;96926.66;5087381;28;20817;-88
2022/08/15 07:50:11;;;;;;;19.88;11.05;;;;;;;19.94;100.00;96926.44;5101818;28;20048;-89
2022/08/15 07:52:38;;;;;;;18.63;10.60;;;;;;;20.19;100.00;96924.56;5111921;28;20040;-88
2022/08/15 07:55:15;;;;;;;19.65;8.77;;;;;;;20.51;100.00;96929.13;5085462;28;20378;-89
2022/08/15 07:57:41;;;;;;;19.02;9.52;;;;;;;20.41;100.00;96934.31;5086855;28;20556;-90
2022/08/15 08:00:13;;;;;;;16.95;9.10;;;;;;;20.58;100.00;96938.28;5102262;28;20034;-87
2022/08/15 08:03:09;;;;;;;20.73;10.40;;;;;;;21.04;100.00;96924.03;5104338;28;20101;-87
2022/08/15 08:05:56;;;;;;;15.60;9.00;;;;;;;21.44;100.00;96927.88;5056870;28;20029;-89
2022/08/15 08:08:42;;;;;;;20.02;8.20;;;;;;;21.50;100.00;96916.75;5063347;28;20127;-87
2022/08/15 08:11:45;;;;;;;17.73;8.95;;;;;;;21.84;100.00;96921.94;5080919;28;20623;-86
2022/08/15 08:14:21;;;;;;;17.75;9.20;;;;;;;22.15;100.00;96917.47;5063848;28;20531;-87
2022/08/15 08:17:02;;;;;;;20.58;9.50;;;;;;;22.19;100.00;96909.28;5082649;28;20028;-87
2022/08/15 08:19:45;;;;;;;16.52;10.05;;;;;;;22.14;100.00;96921.13;5081710;28;20051;-87
2022/08/15 08:22:20;;;;;;;19.33;9.77;;;;;;;22.48;100.00;96920.88;5079589;28;20054;-88
2022/08/15 08:25:17;;;;;;;19.58;10.60;;;;;;;22.57;100.00;96923.72;5076477;28;20028;-88
2022/08/15 08:27:57;;;;;;;17.40;9.05;;;;;;;22.52;100.00;96931.25;5078769;28;20127;-89
2022/08/15 08:30:26;;;;;;;17.05;8.55;;;;;;;22.87;100.00;96928.16;5055737;28;20044;-88
2022/08/15 08:33:30;;;;;;;18.25;8.77;;;;;;;23.38;100.00;96928.13;5079223;28;20028;-88
2022/08/15 08:36:05;;;;;;;14.05;7.82;;;;;;;23.25;100.00;96934.53;5079985;28;20032;-87
2022/08/15 08:38:59;;;;;;;17.50;8.43;;;;;;;24.19;100.00;96930.44;5077448;28;20035;-88
2022/08/15 08:41:37;;;;;;;17.52;8.52;;;;;;;23.84;100.00;96946.03;5084270;28;20058;-89
2022/08/15 08:44:24;;;;;;;14.30;8.90;;;;;;;23.74;100.00;96950.50;5079290;28;20342;-88
2022/08/15 08:47:32;;;;;;;18.92;8.93;;;;;;;23.81;100.00;96949.00;5068679;28;20036;-88
2022/08/15 08:50:00;;;;;;;18.20;9.68;;;;;;;23.99;100.00;96957.13;5015715;28;20048;-88
2022/08/15 08:52:28;;;;;;;18.10;10.40;;;;;;;24.01;100.00;96962.31;5019967;28;20424;-87
2022/08/15 08:55:10;;;;;;;19.95;11.25;;;;;;;24.15;100.00;96969.00;5016186;28;20053;-87
2022/08/15 08:57:46;;;;;;;19.70;10.73;;;;;;;23.68;100.00;96975.88;5017276;28;20638;-88
2022/08/15 09:00:16;;;;;;;21.77;10.55;;;;;;;23.94;100.00;96975.34;5011610;28;20699;-87
2022/08/15 09:02:47;;;;;;;26.50;12.65;;;;;;;24.19;100.00;96981.06;4995994;28;20037;-89
2022/08/15 09:05:42;;;;;;;20.75;10.68;;;;;;;24.29;100.00;96979.19;5006026;28;20078;-89
2022/08/15 09:08:23;;;;;;;18.27;9.82;;;;;;;24.14;100.00;96986.78;4996539;28;20256;-88
2022/08/15 09:10:50;;;;;;;19.33;9.50;;;;;;;24.02;100.00;96987.94;5000005;28;20042;-88
2022/08/15 09:13:30;;;;;;;17.40;9.45;;;;;;;24.14;100.00;96985.97;4999639;28;20090;-88
2022/08/15 09:16:00;;;;;;;23.85;10.70;;;;;;;23.88;100.00;96983.88;5027434;28;20067;-88
2022/08/15 09:18:49;;;;;;;19.40;9.88;;;;;;;23.72;100.00;96987.09;5012781;28;20116;-87
2022/08/15 09:21:15;;;;;;;20.35;9.73;;;;;;;23.56;100.00;96984.13;5015526;28;20994;-87
2022/08/15 09:23:44;;;;;;;18.17;9.70;;;;;;;24.07;100.00;96979.53;5021360;28;20151;-88
2022/08/15 09:26:27;;;;;;;15.80;8.70;;;;;;;23.75;100.00;96983.31;5021125;28;20491;-88
2022/08/15 09:29:43;;;;;;;16.75;8.45;;;;;;;23.55;100.00;96983.31;5083028;28;20051;-88
2022/08/15 09:32:27;;;;;;;19.42;8.52;;;;;;;23.42;100.00;96982.72;5079978;28;20052;-87
2022/08/15 09:35:14;;;;;;;15.45;8.25;;;;;;;23.16;100.00;96984.09;5066621;28;20031;-87
2022/08/15 09:38:11;;;;;;;17.60;8.88;;;;;;;23.44;100.00;96983.44;5062462;28;20035;-88
2022/08/15 09:41:25;;;;;;;17.30;9.05;;;;;;;23.86;100.00;96978.66;5083354;28;20030;-87
2022/08/15 09:44:20;;;;;;;19.77;9.02;;;;;;;24.00;100.00;96971.25;5026510;28;20038;-87
2022/08/15 09:47:00;;;;;;;15.65;7.60;;;;;;;24.00;100.00;96977.41;5020949;28;20190;-89
2022/08/15 09:49:44;;;;;;;15.00;7.32;;;;;;;23.74;100.00;96978.97;5020412;28;20632;-87
2022/08/15 09:52:40;;;;;;;13.45;6.72;;;;;;;24.09;100.00;96980.22;5039508;28;20479;-87
2022/08/15 09:55:44;;;;;;;16.20;6.50;;;;;;;24.72;100.00;96985.00;5036762;28;20037;-88
2022/08/15 09:58:25;;;;;;;12.95;6.40;;;;;;;24.95;100.00;96990.75;5020028;28;20132;-88
2022/08/15 10:01:08;;;;;;;14.30;7.65;;;;;;;24.81;100.00;96989.44;5005122;28;20037;-87
2022/08/15 10:03:43;;;;;;;14.93;7.85;;;;;;;24.82;100.00;96999.13;5040527;28;20029;-88
2022/08/15 10:06:14;;;;;;;15.45;7.80;;;;;;;24.67;100.00;97000.56;5024686;28;20036;-89
2022/08/15 10:08:55;;;;;;;16.30;8.18;;;;;;;24.84;100.00;97004.28;5012048;28;20041;-89
2022/08/15 10:11:30;;;;;;;16.27;7.82;;;;;;;24.44;100.00;97005.38;5015848;28;20037;-88
2022/08/15 10:14:05;;;;;;;14.07;7.75;;;;;;;24.80;100.00;97001.09;4995067;28;20749;-88
2022/08/15 10:16:39;;;;;;;10.85;6.10;;;;;;;24.87;100.00;97007.53;5002201;28;20025;-90
2022/08/15 10:19:35;;;;;;;14.57;5.60;;;;;;;24.82;100.00;97000.94;5014853;28;20040;-88
2022/08/15 10:22:22;;;;;;;10.93;5.50;;;;;;;25.04;100.00;97007.72;5082005;28;20089;-87
2022/08/15 10:25:26;;;;;;;12.45;6.68;;;;;;;25.11;100.00;97018.63;5060521;28;20344;-90
2022/08/15 10:28:10;;;;;;;11.52;5.60;;;;;;;25.80;100.00;97021.72;5018688;28;20774;-91
2022/08/15 10:30:44;;;;;;;17.60;6.30;;;;;;;26.38;100.00;97015.06;5014591;28;20080;-89
2022/08/15 10:33:32;;;;;;;11.40;4.85;;;;;;;25.39;100.00;97014.97;5013402;28;20037;-91
2022/08/15 10:36:13;;;;;;;11.93;5.45;;;;;;;25.55;100.00;97013.47;5021679;28;20052;-90
2022/08/15 10:38:45;;;;;;;12.52;6.28;;;;;;;25.09;100.00;97026.78;5021462;28;20190;-90
2022/08/15 10:41:26;;;;;;;12.90;6.10;;;;;;;26.05;100.00;97026.34;5000834;28;20547;-90
2022/08/15 10:44:09;;;;;;;13.65;6.43;;;;;;;25.77;100.00;97014.03;5016089;28;20159;-91
2022/08/15 10:46:58;;;;;;;10.10;5.55;;;;;;;25.38;100.00;97031.16;5009376;28;20441;-91
2022/08/15 10:49:59;;;;;;;12.35;6.15;;;;;;;25.02;100.00;97028.34;5019660;28;20041;-89
2022/08/15 10:52:56;;;;;;;11.05;6.43;;;;;;;25.16;100.00;97016.34;4990375;28;20052;-91
2022/08/15 10:55:28;;;;;;;13.15;6.10;;;;;;;25.67;100.00;97022.13;4994060;28;20050;-90
2022/08/15 10:57:59;;;;;;;12.23;5.25;;;;;;;25.31;100.00;97030.03;4992637;28;20095;-89
2022/08/15 11:00:53;;;;;;;13.10;5.90;;;;;;;25.34;100.00;97030.59;4980834;28;20780;-90
2022/08/15 11:03:36;;;;;;;11.60;5.75;;;;;;;24.73;100.00;97031.97;4996955;28;20037;-89
2022/08/15 11:06:05;;;;;;;;;;;;;;;24.70;100.00;97032.25;4995212;28;20026;-89
2022/08/15 11:08:31;;;;;;;12.05;6.68;;;;;;;24.81;100.00;97018.75;4977696;28;20012;-89
2022/08/15 11:11:12;;;;;;;11.82;6.68;;;;;;;25.17;100.00;97031.38;4992788;28;20561;-91
2022/08/15 11:13:41;;;;;;;14.00;6.80;;;;;;;25.25;100.00;97025.28;4983264;28;20915;-91
2022/08/15 11:16:24;;;;;;;12.88;6.53;;;;;;;25.78;100.00;97035.25;4988525;28;20105;-90
2022/08/15 11:18:55;;;;;;;11.88;6.47;;;;;;;24.99;100.00;97034.00;4997467;28;20048;-91
2022/08/15 11:21:44;;;;;;;12.30;6.47;;;;;;;25.31;100.00;97036.22;4991741;28;20100;-90
2022/08/15 11:24:12;;;;;;;12.82;7.10;;;;;;;25.58;100.00;97036.38;4999353;28;20026;-87
2022/08/15 11:26:41;;;;;;;13.18;6.32;;;;;;;25.45;100.00;97031.41;5046024;28;20489;-87
2022/08/15 11:29:17;;;;;;;13.02;6.65;;;;;;;25.49;100.00;97041.63;5058988;28;20098;-88
2022/08/15 11:31:52;;;;;;;15.15;5.93;;;;;;;24.90;100.00;97037.53;5056318;28;20038;-87
2022/08/15 11:34:43;;;;;;;12.43;6.13;;;;;;;25.24;100.00;97039.63;5063942;28;20392;-89
2022/08/15 11:37:23;;;;;;;10.55;5.55;;;;;;;25.26;100.00;97045.66;5077581;28;20093;-88
2022/08/15 11:40:01;;;;;;;10.70;5.72;;;;;;;25.43;100.00;97044.91;5079008;28;20029;-87
2022/08/15 11:42:31;;;;;;;11.68;5.80;;;;;;;25.53;100.00;97044.84;5079317;28;20032;-88
2022/08/15 11:45:10;;;;;;;11.65;6.00;;;;;;;25.04;100.00;97050.41;5078756;28;20024;-87
2022/08/15 11:47:47;;;;;;;14.48;6.05;;;;;;;25.07;100.00;97046.56;5074660;28;20043;-87
2022/08/15 11:50:25;;;;;;;17.48;6.90;;;;;;;25.32;100.00;97043.25;5068357;28;20042;-86
2022/08/15 11:52:54;;;;;;;12.93;6.10;;;;;;;25.44;100.00;97037.72;5083660;28;20039;-87
2022/08/15 11:55:27;;;;;;;12.43;6.45;;;;;;;25.20;100.00;97050.59;5087000;28;20044;-87
2022/08/15 11:58:13;;;;;;;12.80;6.90;;;;;;;25.04;100.00;97055.75;5087092;28;20035;-86